createdAt,value
2023-03-05T00:09:23.516Z,4.40
2023-03-05T00:19:23.108Z,7.30
2023-03-05T00:29:22.649Z,7.30
2023-03-05T00:39:22.349Z,6.20
2023-03-05T00:49:21.922Z,4.80
2023-03-05T00:59:16.265Z,5.10
2023-03-05T01:09:15.714Z,9.70
2023-03-05T01:19:15.341Z,11.70
2023-03-05T01:29:14.940Z,9.90
2023-03-05T01:39:14.585Z,5.70
2023-03-05T01:49:14.187Z,6.30
2023-03-05T01:59:14.445Z,5.00
2023-03-05T02:09:13.667Z,7.40
2023-03-05T02:19:13.219Z,6.30
2023-03-05T02:29:12.693Z,7.80
2023-03-05T02:39:12.312Z,7.10
2023-03-05T02:49:06.595Z,5.80
2023-03-05T02:59:06.226Z,8.90
2023-03-05T03:09:11.243Z,11.00
2023-03-05T03:19:05.559Z,13.80
2023-03-05T03:29:05.393Z,16.70
2023-03-05T03:39:04.850Z,11.70
2023-03-05T03:49:04.993Z,17.20
2023-03-05T03:59:04.911Z,16.80
2023-03-05T04:09:03.753Z,18.50
2023-03-05T04:19:03.551Z,19.40
2023-03-05T04:28:57.646Z,17.20
2023-03-05T04:38:57.645Z,13.30
2023-03-05T04:48:56.892Z,14.70
2023-03-05T04:58:56.568Z,13.90
2023-03-05T05:08:56.148Z,9.20
2023-03-05T05:18:55.835Z,5.20
2023-03-05T05:28:55.456Z,11.00
2023-03-05T05:38:55.559Z,15.70
2023-03-05T05:48:54.708Z,16.20
2023-03-05T05:58:54.385Z,16.10
2023-03-05T06:08:48.514Z,12.20
2023-03-05T06:18:48.149Z,8.00
2023-03-05T06:28:47.774Z,6.70
2023-03-05T06:38:48.947Z,5.90
2023-03-05T06:48:47.037Z,6.40
2023-03-05T06:58:46.776Z,4.90
2023-03-05T07:08:46.307Z,5.70
2023-03-05T07:18:50.963Z,3.90
2023-03-05T07:28:45.964Z,7.70
2023-03-05T07:38:43.208Z,4.70
2023-03-05T07:48:39.706Z,4.10
2023-03-05T07:58:39.330Z,2.70
2023-03-05T08:08:39.015Z,6.80
2023-03-05T08:18:38.780Z,7.50
2023-03-05T08:28:38.244Z,5.10
2023-03-05T08:38:38.047Z,6.60
2023-03-05T08:48:39.039Z,7.40
2023-03-05T08:58:37.166Z,7.30
2023-03-05T09:08:31.559Z,9.20
2023-03-05T09:18:31.235Z,7.20
2023-03-05T09:28:30.890Z,7.60
2023-03-05T09:38:30.868Z,6.40
2023-03-05T09:48:30.109Z,7.20
2023-03-05T09:58:29.935Z,6.70
2023-03-05T10:08:29.482Z,5.30
2023-03-05T10:18:29.235Z,6.10
2023-03-05T10:28:28.769Z,7.00
2023-03-05T10:38:28.417Z,9.30
2023-03-05T10:48:22.626Z,7.10
2023-03-05T10:58:24.744Z,9.00
2023-03-05T11:08:22.027Z,10.50
2023-03-05T11:18:21.561Z,11.60
2023-03-05T11:28:30.883Z,8.90
2023-03-05T11:38:21.183Z,12.00
2023-03-05T11:48:20.452Z,15.30
2023-03-05T11:58:20.249Z,13.10
2023-03-05T12:08:19.715Z,13.10
2023-03-05T12:18:19.371Z,13.90
2023-03-05T12:28:19.326Z,14.00
2023-03-05T12:38:26.024Z,11.30
2023-03-05T12:48:13.118Z,8.80
2023-03-05T12:58:14.558Z,12.30
2023-03-05T13:08:14.822Z,12.00
2023-03-05T13:18:12.175Z,13.20
2023-03-05T13:28:11.583Z,11.40
2023-03-05T13:38:11.299Z,8.10
2023-03-05T13:48:10.857Z,9.50
2023-03-05T13:58:10.499Z,7.00
2023-03-05T14:08:10.238Z,8.30
2023-03-05T14:18:09.773Z,7.80
2023-03-05T14:28:09.577Z,9.60
2023-03-05T14:38:09.039Z,12.90
2023-03-05T14:48:08.680Z,10.40
2023-03-05T14:58:08.309Z,8.60
2023-03-05T15:08:08.349Z,8.80
2023-03-05T15:18:07.911Z,10.00
2023-03-05T15:28:07.213Z,9.80
2023-03-05T15:38:06.860Z,8.40
2023-03-05T15:48:06.496Z,8.70
2023-03-05T15:58:00.976Z,7.50
2023-03-05T16:08:00.606Z,10.10
2023-03-05T16:18:00.307Z,8.30
2023-03-05T16:27:59.737Z,6.90
2023-03-05T16:37:59.413Z,9.60
2023-03-05T16:47:59.041Z,8.60
2023-03-05T16:57:58.772Z,9.50
2023-03-05T17:07:58.233Z,7.80
2023-03-05T17:17:57.859Z,8.90
2023-03-05T17:27:57.530Z,8.10
2023-03-05T17:37:57.117Z,10.80
2023-03-05T17:47:58.567Z,9.40
2023-03-05T17:57:56.556Z,8.40
2023-03-05T18:07:50.773Z,9.30
2023-03-05T18:17:50.442Z,9.40
2023-03-05T18:27:50.202Z,8.10
2023-03-05T18:37:49.899Z,10.60
2023-03-05T18:47:49.403Z,9.50
2023-03-05T18:57:48.986Z,10.70
2023-03-05T19:07:48.598Z,9.70
2023-03-05T19:17:48.233Z,12.50
2023-03-05T19:27:48.021Z,13.50
2023-03-05T19:37:47.489Z,14.90
2023-03-05T19:47:47.109Z,15.70
2023-03-05T19:57:46.771Z,15.20
2023-03-05T20:07:46.522Z,14.20
2023-03-05T20:17:40.781Z,15.70
2023-03-05T20:27:40.437Z,15.80
2023-03-05T20:37:40.241Z,14.90
2023-03-05T20:47:39.693Z,14.40
2023-03-05T20:57:39.321Z,10.40
2023-03-05T21:07:38.961Z,14.10
2023-03-05T21:17:38.606Z,10.70
2023-03-05T21:27:38.361Z,13.30
2023-03-05T21:37:38.021Z,13.80
2023-03-05T21:47:37.629Z,15.00
2023-03-05T21:57:37.175Z,16.50
2023-03-05T22:07:31.335Z,13.50
2023-03-05T22:17:30.990Z,14.50
2023-03-05T22:27:32.352Z,17.60
2023-03-05T22:37:30.282Z,16.40
2023-03-05T22:47:30.054Z,16.50
2023-03-05T22:57:29.897Z,17.30
2023-03-05T23:07:29.202Z,16.80
2023-03-05T23:17:28.903Z,17.40
2023-03-05T23:27:28.512Z,16.30
2023-03-05T23:37:22.720Z,18.20
2023-03-05T23:47:22.509Z,16.90
2023-03-05T23:57:22.011Z,15.60
